Skip to Main Content

If you see just a black screen when trying to view Live Traffic cameras, please click inside the window to get video to play. An update to certain browsers is not allowing the video to auto-play when the window opens. 

SEARCH:
Location Air RH Dwp Precip Type Wind Speed Wind Gust Direction Pavement Temperature Date/Time
Hatem Bridge US 40 E/B 76 89 73 None 4 mph 4 mph N 76 - 76 7/17/2018 10:19:00 PM
I-270 at I-370 69 93 67 None Calm Calm N 76 - 76 7/17/2018 10:20:00 PM
I-270 at MD-109 69 99 69 None Calm Calm W 74 - 76 7/17/2018 10:20:00 PM
I-495 at American Legion Bridge 70 100 70 None Calm Calm N 75 - 76 7/17/2018 10:20:00 PM
I-68 at Savage Mt 63 85 59 None Calm 5 mph W 71 - 73 7/17/2018 10:20:00 PM
I-68 at Sideling Hill 69 87 65 None Calm 6 mph N 76 - 77 7/17/2018 10:20:00 PM
I-68 at US 219 64 78 57 None 6 mph 13 mph N 70 - 74 7/17/2018 10:20:00 PM
I-68 at WV Line 67 71 57 None Calm Calm NE 77 - 78 7/17/2018 10:20:00 PM
I-695 at I-83 77 84 72 Rain Calm 5 mph N 83 - 84 7/17/2018 10:15:00 PM
I-695 on FSK Bridge 76 95 75 None Calm Calm NE 79 - 79 7/17/2018 10:23:00 PM
I-70 at Fred-Wash Co. 66 100 66 None Calm 7 mph NW 72 - 72 7/17/2018 10:20:00 PM
I-70 at I-695 74 90 71 Rain 6 mph 16 mph W 78 - 81 7/17/2018 10:20:00 PM
I-70 at I-81 70 100 70 None Calm Calm N - 7/17/2018 10:20:00 PM
I-70 at MD-27 69 100 69 None Calm Calm NE 75 - 75 7/17/2018 10:20:00 PM
I-70 at MD-32 70 94 68 Rain Calm Calm N 76 - 78 7/17/2018 10:15:00 PM
I-83 at MD-137 74 100 74 Rain Calm Calm W 78 - 78 7/17/2018 10:20:00 PM
I-95 at I-695 NE 76 90 73 Rain Calm Calm N 80 - 82 7/17/2018 10:23:00 PM
I-95 at Patuxent River 71 94 70 None Calm 7 mph NE 75 - 76 7/17/2018 10:20:00 PM
I-95 at Tydings Bridge 74 93 72 None Calm Calm N 82 - 83 7/17/2018 10:20:00 PM
I-95/495 at I-295 78 70 67 None 11 mph 20 mph N 82 - 82 7/17/2018 10:20:00 PM
I-97 at MD-100 - - - No Data Available - - No Data Available -
I-97 at MD-32 75 95 73 None Calm 4 mph N 81 - 82 7/17/2018 10:20:00 PM
IS 70 W of I-270 - - - No Data Available - - No Data Available 77 - 77 7/17/2018 10:20:00 PM
MD 136 @ MD 646 73 95 71 No Data Available Calm Calm N 85 - 85 7/17/2018 10:20:00 PM
MD 20 at MD 21 73 96 72 None Calm Calm SE 83 - 83 7/17/2018 10:20:00 PM
MD 23 at Meadowtree Road 72 96 71 No Data Available Calm Calm N 81 - 81 7/17/2018 10:20:00 PM
MD 231 at Patuxent River 75 96 74 None Calm 4 mph N 81 - 84 7/17/2018 10:20:00 PM
MD 24 at Jarrettsville Road 74 94 73 No Data Available Calm Calm W 85 - 85 7/17/2018 10:20:00 PM
MD 260 at Cox Rd 73 98 72 None Calm Calm N 85 - 85 7/17/2018 10:20:00 PM
MD-135 at Salt Dome 64 84 59 None Calm 6 mph NW 75 - 75 7/17/2018 10:20:00 PM
MD-140 at MD-97 70 98 69 None Calm 6 mph S 75 - 77 7/17/2018 10:20:00 PM
MD-200 EB at Bonifant Rd - - - No Data Available - - No Data Available -
MD-200 WB at Muncaster Mill Rd 68 94 66 None Calm 6 mph W 74 - 76 7/17/2018 10:20:00 PM
MD-213 at Sassafras River 75 100 75 None Calm 4 mph NW 79 - 79 7/17/2018 10:20:00 PM
MD-24 at Rock St Park 73 100 73 None Calm Calm N 76 - 76 7/17/2018 10:20:00 PM
MD-30 at PA Line 70 100 70 None Calm Calm NW 79 - 79 7/17/2018 10:20:00 PM
MD-33 at Knapps Narrows Drawbridge 77 91 74 None 8 mph 14 mph NW 87 - 87 7/17/2018 10:15:00 PM
MD-344 at MD-224 76 96 75 None Calm 5 mph NW 86 - 86 7/17/2018 10:20:00 PM
MD-4 at Patuxent River 76 98 75 None 14 mph 15 mph NW 81 - 83 7/17/2018 10:23:00 PM
MD-404 at Choptank River 73 95 71 None Calm Calm N 80 - 80 7/17/2018 10:15:00 PM
MD-43 at MD-150 75 100 75 None Calm 4 mph NW 81 - 82 7/17/2018 10:20:00 PM
MD-51 at Oldtown Salt Dome 71 82 65 None Calm Calm N 83 - 83 7/17/2018 10:20:00 PM
MD-64 at MD-418 69 100 69 None Calm 4 mph SE 79 - 80 7/17/2018 10:20:00 PM
US 301 at MD 305 72 97 72 None Calm 4 mph NW 106 - 81 7/17/2018 10:20:00 PM
US-1 at Baltimore / Harford Co. Line 73 96 72 None Calm Calm N 78 - 78 7/17/2018 10:20:00 PM
US-1 at Conowingo Dam 74 100 74 None Calm 4 mph N 79 - 79 7/17/2018 10:20:00 PM
US-13 at US-113 74 96 73 None Calm 4 mph N 87 - 88 7/17/2018 10:20:00 PM
US-13 at US-50 73 96 72 None Calm 5 mph NW 84 - 84 7/17/2018 10:20:00 PM
US-15 at MD-140 71 96 70 None Calm Calm NW 77 - 77 7/17/2018 10:20:00 PM
US-301 at MD-5 76 100 76 None Calm 9 mph NW 83 - 84 7/17/2018 10:20:00 PM
US-301 at Potomac 85 81 78 None Calm 4 mph NW 80 - 84 7/17/2018 10:23:00 PM
US-340 at MD-180 68 95 66 None Calm Calm SE 74 - 78 7/17/2018 10:20:00 PM
US-50 at Choptank 74 100 74 None Calm 6 mph N 81 - 81 7/17/2018 10:20:00 PM
US-50 at I-95 74 87 70 None 5 mph 11 mph W 83 - 83 7/17/2018 10:20:00 PM
US-50 at MD-2 75 100 75 None Calm Calm N 80 - 82 7/17/2018 10:20:00 PM
US-50 at MD-331 74 100 74 None Calm 7 mph N 81 - 81 7/17/2018 10:20:00 PM
US-50 at OC Drawbridge 74 100 74 None 5 mph 8 mph NE 80 - 80 7/17/2018 10:20:00 PM
US-50 at Table Rock Rd 64 88 60 None Calm 4 mph NW 73 - 73 7/17/2018 10:20:00 PM
US-50 Kent Narrow Bridge 76 100 76 None Calm 6 mph N 80 - 81 7/17/2018 10:20:00 PM
WPL Pier 31 75 93 73 None 12 mph 12 mph NW 79 - 79 7/17/2018 10:24:00 PM
Location Air RH Dwp Precip Type Wind Speed Wind Gust Direction Pavement Temperature Date/Time